Main page
METAR-TAF:

METAR-TAF

Airports :

Rabat, Morocco

Rabat–Salé Airport

latitude: 34-03N, longitude: 006-46W, elevation: 84 m

Current weather observation

The report was made 33 minutes ago, at 20:00 UTC
Wind 7 kt from the North/Northeast
Temperature 24°C
Humidity 50%
Pressure 1019 hPa
Visibility: 8000 m

METAR: GMME 232000Z 02007KT 8000 NSC 24/13 Q1019 NOSIG

Time: 20:33 (20:33 UTC)

Forecast

The report was made 3 hours and 33 minutes ago, at 17:00 UTC
Forecast valid from 23 at 18 UTC to 24 at 24 UTC
Wind 10 kt from the East
Visibility: 6000 m
Temporary
from 24 at 02 UTC to 24 at 06 UTC
Wind 8 kt from the Southeast
Scattered clouds at a height of 1500 ft

TAF: GMME 231700Z 2318/2424 08010KT 6000 NSC TEMPO 2402/2406 14008KT SCT015

Weather observations and forecasts of more than 4000 airports (METAR and TAF reports).

The available stations are represented by yellow and red dots on the map.

Hover mouse over dot to see the name of the station.

Then click to see weather observations and forecasts.

To change the map : click on the green buttons with a black cross to zoom in, on the green button with a dash to zoom out, or on the green arrows for adjacent maps.


METAR-TAF: